sensor_id;sensor_type;location;lat;lon;timestamp;temperature;humidity
1546;DHT22;766;51.502;9.752;2022-09-30T00:01:44;6.30;99.90
1546;DHT22;766;51.502;9.752;2022-09-30T00:04:14;6.30;99.90
1546;DHT22;766;51.502;9.752;2022-09-30T00:06:43;6.30;99.90
1546;DHT22;766;51.502;9.752;2022-09-30T00:09:14;6.20;99.90
1546;DHT22;766;51.502;9.752;2022-09-30T00:11:43;6.20;99.90
1546;DHT22;766;51.502;9.752;2022-09-30T00:14:14;6.20;99.90
1546;DHT22;766;51.502;9.752;2022-09-30T00:16:51;6.20;99.90
1546;DHT22;766;51.502;9.752;2022-09-30T00:19:22;6.20;99.90
1546;DHT22;766;51.502;9.752;2022-09-30T00:21:53;6.20;99.90
1546;DHT22;766;51.502;9.752;2022-09-30T00:24:25;6.20;99.90
1546;DHT22;766;51.502;9.752;2022-09-30T00:26:57;6.10;99.90
1546;DHT22;766;51.502;9.752;2022-09-30T00:29:26;6.10;99.90
1546;DHT22;766;51.502;9.752;2022-09-30T00:31:54;6.00;99.90
1546;DHT22;766;51.502;9.752;2022-09-30T00:34:23;6.10;99.90
1546;DHT22;766;51.502;9.752;2022-09-30T00:36:53;6.10;99.90
1546;DHT22;766;51.502;9.752;2022-09-30T00:39:25;6.10;99.90
1546;DHT22;766;51.502;9.752;2022-09-30T00:41:56;6.10;99.90
1546;DHT22;766;51.502;9.752;2022-09-30T00:44:47;6.10;99.90
1546;DHT22;766;51.502;9.752;2022-09-30T00:47:37;6.00;99.90
1546;DHT22;766;51.502;9.752;2022-09-30T00:50:16;6.00;99.90
1546;DHT22;766;51.502;9.752;2022-09-30T00:52:51;6.10;99.90
1546;DHT22;766;51.502;9.752;2022-09-30T00:55:31;5.90;99.90
1546;DHT22;766;51.502;9.752;2022-09-30T00:58:03;5.90;99.90
1546;DHT22;766;51.502;9.752;2022-09-30T01:00:32;5.80;99.90
1546;DHT22;766;51.502;9.752;2022-09-30T01:03:03;5.80;99.90
1546;DHT22;766;51.502;9.752;2022-09-30T01:05:33;5.90;99.90
1546;DHT22;766;51.502;9.752;2022-09-30T01:08:04;5.90;99.90
1546;DHT22;766;51.502;9.752;2022-09-30T01:10:35;5.80;99.90
1546;DHT22;766;51.502;9.752;2022-09-30T01:13:05;5.80;99.90
1546;DHT22;766;51.502;9.752;2022-09-30T01:15:47;5.70;99.90
1546;DHT22;766;51.502;9.752;2022-09-30T01:18:23;5.70;99.90
1546;DHT22;766;51.502;9.752;2022-09-30T01:21:08;5.70;99.90
1546;DHT22;766;51.502;9.752;2022-09-30T01:24:11;5.60;99.90
1546;DHT22;766;51.502;9.752;2022-09-30T01:27:01;5.70;99.90
1546;DHT22;766;51.502;9.752;2022-09-30T01:35:43;5.50;99.90
1546;DHT22;766;51.502;9.752;2022-09-30T01:38:23;5.30;99.90
1546;DHT22;766;51.502;9.752;2022-09-30T01:41:02;5.30;99.90
1546;DHT22;766;51.502;9.752;2022-09-30T01:43:45;5.20;99.90
1546;DHT22;766;51.502;9.752;2022-09-30T01:46:32;5.10;99.90
1546;DHT22;766;51.502;9.752;2022-09-30T01:49:10;5.30;99.90
1546;DHT22;766;51.502;9.752;2022-09-30T01:51:44;5.30;99.90
1546;DHT22;766;51.502;9.752;2022-09-30T01:54:21;5.20;99.90
1546;DHT22;766;51.502;9.752;2022-09-30T01:56:59;5.10;99.90
1546;DHT22;766;51.502;9.752;2022-09-30T01:59:33;5.10;99.90
1546;DHT22;766;51.502;9.752;2022-09-30T02:02:07;5.10;99.90
1546;DHT22;766;51.502;9.752;2022-09-30T02:04:42;5.10;99.90
1546;DHT22;766;51.502;9.752;2022-09-30T02:07:19;5.10;99.90
1546;DHT22;766;51.502;9.752;2022-09-30T02:09:55;5.10;99.90
1546;DHT22;766;51.502;9.752;2022-09-30T02:12:28;4.90;99.90
1546;DHT22;766;51.502;9.752;2022-09-30T02:15:01;4.80;99.90
1546;DHT22;766;51.502;9.752;2022-09-30T02:17:32;4.80;99.90
1546;DHT22;766;51.502;9.752;2022-09-30T02:20:06;4.70;99.90
1546;DHT22;766;51.502;9.752;2022-09-30T02:22:39;4.80;99.90
1546;DHT22;766;51.502;9.752;2022-09-30T02:25:14;4.80;99.90
1546;DHT22;766;51.502;9.752;2022-09-30T02:27:48;4.80;99.90
1546;DHT22;766;51.502;9.752;2022-09-30T02:30:17;4.90;99.90
1546;DHT22;766;51.502;9.752;2022-09-30T02:32:48;4.90;99.90
1546;DHT22;766;51.502;9.752;2022-09-30T02:35:22;4.80;99.90
1546;DHT22;766;51.502;9.752;2022-09-30T02:37:59;4.80;99.90
1546;DHT22;766;51.502;9.752;2022-09-30T02:40:36;4.80;99.90
1546;DHT22;766;51.502;9.752;2022-09-30T02:43:07;4.60;99.90
1546;DHT22;766;51.502;9.752;2022-09-30T02:45:42;4.50;99.90
1546;DHT22;766;51.502;9.752;2022-09-30T02:48:22;4.60;99.90
1546;DHT22;766;51.502;9.752;2022-09-30T02:50:59;4.70;99.90
1546;DHT22;766;51.502;9.752;2022-09-30T02:53:34;4.70;99.90
1546;DHT22;766;51.502;9.752;2022-09-30T02:56:16;4.70;99.90
1546;DHT22;766;51.502;9.752;2022-09-30T02:58:46;4.70;99.90
1546;DHT22;766;51.502;9.752;2022-09-30T03:01:17;4.70;99.90
1546;DHT22;766;51.502;9.752;2022-09-30T03:03:49;4.60;99.90
1546;DHT22;766;51.502;9.752;2022-09-30T03:06:23;4.70;99.90
1546;DHT22;766;51.502;9.752;2022-09-30T03:08:52;4.70;99.90
1546;DHT22;766;51.502;9.752;2022-09-30T03:11:22;4.80;99.90
1546;DHT22;766;51.502;9.752;2022-09-30T03:14:08;4.80;99.90
1546;DHT22;766;51.502;9.752;2022-09-30T03:19:45;4.80;99.90
1546;DHT22;766;51.502;9.752;2022-09-30T03:22:31;4.80;99.90
1546;DHT22;766;51.502;9.752;2022-09-30T03:25:20;4.70;99.90
1546;DHT22;766;51.502;9.752;2022-09-30T03:28:01;4.50;99.90
1546;DHT22;766;51.502;9.752;2022-09-30T03:30:37;4.20;99.90
1546;DHT22;766;51.502;9.752;2022-09-30T03:33:11;4.00;99.90
1546;DHT22;766;51.502;9.752;2022-09-30T03:35:49;3.70;99.90
1546;DHT22;766;51.502;9.752;2022-09-30T03:38:32;3.80;99.90
1546;DHT22;766;51.502;9.752;2022-09-30T03:41:07;3.90;99.90
1546;DHT22;766;51.502;9.752;2022-09-30T03:43:41;4.00;99.90
1546;DHT22;766;51.502;9.752;2022-09-30T03:46:17;4.00;99.90
1546;DHT22;766;51.502;9.752;2022-09-30T03:48:49;3.90;99.90
1546;DHT22;766;51.502;9.752;2022-09-30T03:51:19;4.00;99.90
1546;DHT22;766;51.502;9.752;2022-09-30T03:53:52;4.00;99.90
1546;DHT22;766;51.502;9.752;2022-09-30T03:56:24;3.90;99.90
1546;DHT22;766;51.502;9.752;2022-09-30T03:58:53;3.90;99.90
1546;DHT22;766;51.502;9.752;2022-09-30T04:01:22;3.90;99.90
1546;DHT22;766;51.502;9.752;2022-09-30T04:03:54;3.90;99.90
1546;DHT22;766;51.502;9.752;2022-09-30T04:06:26;3.90;99.90
1546;DHT22;766;51.502;9.752;2022-09-30T04:08:56;4.00;99.90
1546;DHT22;766;51.502;9.752;2022-09-30T04:11:25;3.90;99.90
1546;DHT22;766;51.502;9.752;2022-09-30T04:13:53;3.90;99.90
1546;DHT22;766;51.502;9.752;2022-09-30T04:16:22;3.90;99.90
1546;DHT22;766;51.502;9.752;2022-09-30T04:18:51;3.70;99.90
1546;DHT22;766;51.502;9.752;2022-09-30T04:21:19;3.60;99.90
1546;DHT22;766;51.502;9.752;2022-09-30T04:23:48;3.60;99.90
1546;DHT22;766;51.502;9.752;2022-09-30T04:26:18;3.70;99.90
1546;DHT22;766;51.502;9.752;2022-09-30T04:28:47;3.70;99.90
1546;DHT22;766;51.502;9.752;2022-09-30T04:31:15;3.70;99.90
1546;DHT22;766;51.502;9.752;2022-09-30T04:33:45;3.70;99.90
1546;DHT22;766;51.502;9.752;2022-09-30T04:36:14;3.70;99.90
1546;DHT22;766;51.502;9.752;2022-09-30T04:38:42;3.80;99.90
1546;DHT22;766;51.502;9.752;2022-09-30T04:41:13;3.70;99.90
1546;DHT22;766;51.502;9.752;2022-09-30T04:43:43;3.40;99.90
1546;DHT22;766;51.502;9.752;2022-09-30T04:46:13;3.50;99.90
1546;DHT22;766;51.502;9.752;2022-09-30T04:48:45;3.60;99.90
1546;DHT22;766;51.502;9.752;2022-09-30T04:51:16;3.60;99.90
1546;DHT22;766;51.502;9.752;2022-09-30T04:53:45;3.70;99.90
1546;DHT22;766;51.502;9.752;2022-09-30T04:56:14;3.70;99.90
1546;DHT22;766;51.502;9.752;2022-09-30T04:58:46;3.80;99.90
1546;DHT22;766;51.502;9.752;2022-09-30T05:01:17;3.70;99.90
1546;DHT22;766;51.502;9.752;2022-09-30T05:03:45;3.70;99.90
1546;DHT22;766;51.502;9.752;2022-09-30T05:06:15;3.80;99.90
1546;DHT22;766;51.502;9.752;2022-09-30T05:08:43;3.80;99.90
1546;DHT22;766;51.502;9.752;2022-09-30T05:11:20;4.00;99.90
1546;DHT22;766;51.502;9.752;2022-09-30T05:13:50;4.00;99.90
1546;DHT22;766;51.502;9.752;2022-09-30T05:16:19;3.90;99.90
1546;DHT22;766;51.502;9.752;2022-09-30T05:18:49;4.00;99.90
1546;DHT22;766;51.502;9.752;2022-09-30T05:21:18;4.10;99.90
1546;DHT22;766;51.502;9.752;2022-09-30T05:23:47;4.00;99.90
1546;DHT22;766;51.502;9.752;2022-09-30T05:26:16;4.00;99.90
1546;DHT22;766;51.502;9.752;2022-09-30T05:28:45;4.00;99.90
1546;DHT22;766;51.502;9.752;2022-09-30T05:31:15;4.00;99.90
1546;DHT22;766;51.502;9.752;2022-09-30T05:33:45;4.10;99.90
1546;DHT22;766;51.502;9.752;2022-09-30T05:36:15;4.10;99.90
1546;DHT22;766;51.502;9.752;2022-09-30T05:38:43;4.00;99.90
1546;DHT22;766;51.502;9.752;2022-09-30T05:41:13;4.10;99.90
1546;DHT22;766;51.502;9.752;2022-09-30T05:43:42;4.10;99.90
1546;DHT22;766;51.502;9.752;2022-09-30T05:46:16;4.00;99.90
1546;DHT22;766;51.502;9.752;2022-09-30T05:48:45;3.90;99.90
1546;DHT22;766;51.502;9.752;2022-09-30T05:51:14;3.90;99.90
1546;DHT22;766;51.502;9.752;2022-09-30T05:53:45;3.80;99.90
1546;DHT22;766;51.502;9.752;2022-09-30T05:56:15;3.90;99.90
1546;DHT22;766;51.502;9.752;2022-09-30T05:58:44;4.00;99.90
1546;DHT22;766;51.502;9.752;2022-09-30T06:01:15;4.00;99.90
1546;DHT22;766;51.502;9.752;2022-09-30T06:03:45;4.10;99.90
1546;DHT22;766;51.502;9.752;2022-09-30T06:06:14;4.00;99.90
1546;DHT22;766;51.502;9.752;2022-09-30T06:08:43;4.00;99.90
1546;DHT22;766;51.502;9.752;2022-09-30T06:11:13;4.10;99.90
1546;DHT22;766;51.502;9.752;2022-09-30T06:13:43;4.10;99.90
1546;DHT22;766;51.502;9.752;2022-09-30T06:16:13;4.30;99.90
1546;DHT22;766;51.502;9.752;2022-09-30T06:18:43;4.40;99.90
1546;DHT22;766;51.502;9.752;2022-09-30T06:21:13;4.40;99.90
1546;DHT22;766;51.502;9.752;2022-09-30T06:23:44;4.50;99.90
1546;DHT22;766;51.502;9.752;2022-09-30T06:26:13;4.60;99.90
1546;DHT22;766;51.502;9.752;2022-09-30T06:28:42;4.70;99.90
1546;DHT22;766;51.502;9.752;2022-09-30T06:31:11;4.90;99.90
1546;DHT22;766;51.502;9.752;2022-09-30T06:33:42;4.70;99.90
1546;DHT22;766;51.502;9.752;2022-09-30T06:36:10;4.60;99.90
1546;DHT22;766;51.502;9.752;2022-09-30T06:38:39;4.60;99.90
1546;DHT22;766;51.502;9.752;2022-09-30T06:41:07;4.60;99.90
1546;DHT22;766;51.502;9.752;2022-09-30T06:43:38;4.60;99.90
1546;DHT22;766;51.502;9.752;2022-09-30T06:46:11;5.00;99.90
1546;DHT22;766;51.502;9.752;2022-09-30T06:48:47;5.30;99.90
1546;DHT22;766;51.502;9.752;2022-09-30T06:51:15;5.10;99.90
1546;DHT22;766;51.502;9.752;2022-09-30T06:53:43;5.00;99.90
1546;DHT22;766;51.502;9.752;2022-09-30T06:56:18;4.90;99.90
1546;DHT22;766;51.502;9.752;2022-09-30T06:58:48;4.90;99.90
1546;DHT22;766;51.502;9.752;2022-09-30T07:01:17;5.00;99.90
1546;DHT22;766;51.502;9.752;2022-09-30T07:03:48;5.30;99.90
1546;DHT22;766;51.502;9.752;2022-09-30T07:06:24;5.40;99.90
1546;DHT22;766;51.502;9.752;2022-09-30T07:08:52;5.50;99.90
1546;DHT22;766;51.502;9.752;2022-09-30T07:11:23;5.70;99.90
1546;DHT22;766;51.502;9.752;2022-09-30T07:13:52;6.00;99.90
1546;DHT22;766;51.502;9.752;2022-09-30T07:16:22;6.10;99.90
1546;DHT22;766;51.502;9.752;2022-09-30T07:18:55;6.30;99.90
1546;DHT22;766;51.502;9.752;2022-09-30T07:21:25;6.20;99.90
1546;DHT22;766;51.502;9.752;2022-09-30T07:23:54;6.20;99.90
1546;DHT22;766;51.502;9.752;2022-09-30T07:26:25;6.30;99.90
1546;DHT22;766;51.502;9.752;2022-09-30T07:28:53;6.50;99.90
1546;DHT22;766;51.502;9.752;2022-09-30T07:31:24;6.60;99.90
1546;DHT22;766;51.502;9.752;2022-09-30T07:34:08;6.80;99.90
1546;DHT22;766;51.502;9.752;2022-09-30T07:36:38;7.20;99.90
1546;DHT22;766;51.502;9.752;2022-09-30T07:39:13;7.40;99.90
1546;DHT22;766;51.502;9.752;2022-09-30T07:41:43;7.60;99.90
1546;DHT22;766;51.502;9.752;2022-09-30T07:44:13;7.90;99.90
1546;DHT22;766;51.502;9.752;2022-09-30T07:46:43;7.50;99.90
1546;DHT22;766;51.502;9.752;2022-09-30T07:49:14;7.50;99.90
1546;DHT22;766;51.502;9.752;2022-09-30T07:51:52;7.40;99.90
1546;DHT22;766;51.502;9.752;2022-09-30T07:54:23;7.80;99.90
1546;DHT22;766;51.502;9.752;2022-09-30T07:56:51;8.00;99.90
1546;DHT22;766;51.502;9.752;2022-09-30T07:59:41;8.30;99.90
1546;DHT22;766;51.502;9.752;2022-09-30T08:02:14;8.60;99.90
1546;DHT22;766;51.502;9.752;2022-09-30T08:04:45;8.80;99.90
1546;DHT22;766;51.502;9.752;2022-09-30T08:07:14;8.90;99.90
1546;DHT22;766;51.502;9.752;2022-09-30T08:09:43;9.10;99.90
1546;DHT22;766;51.502;9.752;2022-09-30T08:12:11;9.20;99.90
1546;DHT22;766;51.502;9.752;2022-09-30T08:14:40;9.30;99.90
1546;DHT22;766;51.502;9.752;2022-09-30T08:17:08;9.40;99.90
1546;DHT22;766;51.502;9.752;2022-09-30T08:19:37;9.70;99.90
1546;DHT22;766;51.502;9.752;2022-09-30T08:22:11;9.90;99.90
1546;DHT22;766;51.502;9.752;2022-09-30T08:24:40;10.10;99.90
1546;DHT22;766;51.502;9.752;2022-09-30T08:27:09;10.20;99.90
1546;DHT22;766;51.502;9.752;2022-09-30T08:29:37;10.40;99.90
1546;DHT22;766;51.502;9.752;2022-09-30T08:32:20;10.80;99.90
1546;DHT22;766;51.502;9.752;2022-09-30T08:34:49;11.10;99.90
1546;DHT22;766;51.502;9.752;2022-09-30T08:37:18;10.90;99.90
1546;DHT22;766;51.502;9.752;2022-09-30T08:39:47;11.10;99.90
1546;DHT22;766;51.502;9.752;2022-09-30T08:42:32;11.30;99.90
1546;DHT22;766;51.502;9.752;2022-09-30T08:45:12;11.50;99.90
1546;DHT22;766;51.502;9.752;2022-09-30T08:47:50;11.50;99.90
1546;DHT22;766;51.502;9.752;2022-09-30T08:50:27;11.60;99.90
1546;DHT22;766;51.502;9.752;2022-09-30T08:53:00;11.80;99.90
1546;DHT22;766;51.502;9.752;2022-09-30T08:55:34;11.80;99.90
1546;DHT22;766;51.502;9.752;2022-09-30T08:58:10;11.90;99.90
1546;DHT22;766;51.502;9.752;2022-09-30T09:00:42;12.10;99.90
1546;DHT22;766;51.502;9.752;2022-09-30T09:03:12;12.30;99.90
1546;DHT22;766;51.502;9.752;2022-09-30T09:05:46;12.30;99.90
1546;DHT22;766;51.502;9.752;2022-09-30T09:08:27;12.30;99.90
1546;DHT22;766;51.502;9.752;2022-09-30T09:11:01;12.40;99.90
1546;DHT22;766;51.502;9.752;2022-09-30T09:13:42;12.40;99.90
1546;DHT22;766;51.502;9.752;2022-09-30T09:16:20;12.40;99.90
1546;DHT22;766;51.502;9.752;2022-09-30T09:18:58;12.60;99.90
1546;DHT22;766;51.502;9.752;2022-09-30T09:21:48;12.70;99.90
1546;DHT22;766;51.502;9.752;2022-09-30T09:24:23;12.70;99.90
1546;DHT22;766;51.502;9.752;2022-09-30T09:26:54;12.80;99.90
1546;DHT22;766;51.502;9.752;2022-09-30T09:29:34;12.80;99.90
1546;DHT22;766;51.502;9.752;2022-09-30T09:32:12;12.90;99.90
1546;DHT22;766;51.502;9.752;2022-09-30T09:34:41;13.30;99.90
1546;DHT22;766;51.502;9.752;2022-09-30T09:37:15;13.20;99.90
1546;DHT22;766;51.502;9.752;2022-09-30T09:39:59;13.50;99.90
1546;DHT22;766;51.502;9.752;2022-09-30T09:42:50;13.60;99.90
1546;DHT22;766;51.502;9.752;2022-09-30T09:45:25;13.80;99.90
1546;DHT22;766;51.502;9.752;2022-09-30T09:47:56;13.90;99.90
1546;DHT22;766;51.502;9.752;2022-09-30T09:50:33;14.00;99.90
1546;DHT22;766;51.502;9.752;2022-09-30T09:53:21;14.10;99.90
1546;DHT22;766;51.502;9.752;2022-09-30T09:55:57;14.20;99.90
1546;DHT22;766;51.502;9.752;2022-09-30T09:58:26;14.40;99.90
1546;DHT22;766;51.502;9.752;2022-09-30T10:01:08;14.40;99.90
1546;DHT22;766;51.502;9.752;2022-09-30T10:04:10;14.60;99.90
1546;DHT22;766;51.502;9.752;2022-09-30T10:06:49;14.60;99.90
1546;DHT22;766;51.502;9.752;2022-09-30T10:09:29;14.50;99.90
1546;DHT22;766;51.502;9.752;2022-09-30T10:12:28;14.80;99.90
1546;DHT22;766;51.502;9.752;2022-09-30T10:14:59;14.60;99.90
1546;DHT22;766;51.502;9.752;2022-09-30T10:17:30;14.30;99.90
1546;DHT22;766;51.502;9.752;2022-09-30T10:20:05;14.50;99.90
1546;DHT22;766;51.502;9.752;2022-09-30T10:22:35;14.70;99.90
1546;DHT22;766;51.502;9.752;2022-09-30T10:25:15;14.90;99.90
1546;DHT22;766;51.502;9.752;2022-09-30T10:27:51;15.10;99.90
1546;DHT22;766;51.502;9.752;2022-09-30T10:30:40;14.90;99.90
1546;DHT22;766;51.502;9.752;2022-09-30T10:33:21;15.00;99.90
1546;DHT22;766;51.502;9.752;2022-09-30T10:35:56;15.30;99.90
1546;DHT22;766;51.502;9.752;2022-09-30T10:38:27;15.40;99.90
1546;DHT22;766;51.502;9.752;2022-09-30T10:40:58;15.40;99.90
1546;DHT22;766;51.502;9.752;2022-09-30T10:43:32;15.50;99.90
1546;DHT22;766;51.502;9.752;2022-09-30T10:46:02;15.60;99.90
1546;DHT22;766;51.502;9.752;2022-09-30T10:48:54;15.70;99.90
1546;DHT22;766;51.502;9.752;2022-09-30T10:51:28;16.40;99.90
1546;DHT22;766;51.502;9.752;2022-09-30T10:53:57;16.20;99.90
1546;DHT22;766;51.502;9.752;2022-09-30T10:56:40;16.20;99.90
1546;DHT22;766;51.502;9.752;2022-09-30T10:59:26;16.40;99.90
1546;DHT22;766;51.502;9.752;2022-09-30T11:02:03;16.40;99.90
1546;DHT22;766;51.502;9.752;2022-09-30T11:04:36;16.30;99.90
1546;DHT22;766;51.502;9.752;2022-09-30T11:07:17;16.30;99.90
1546;DHT22;766;51.502;9.752;2022-09-30T11:09:53;16.20;99.90
1546;DHT22;766;51.502;9.752;2022-09-30T11:12:29;16.20;99.90
1546;DHT22;766;51.502;9.752;2022-09-30T11:15:08;16.20;99.90
1546;DHT22;766;51.502;9.752;2022-09-30T11:17:43;15.90;99.90
1546;DHT22;766;51.502;9.752;2022-09-30T11:20:19;16.40;99.90
1546;DHT22;766;51.502;9.752;2022-09-30T11:22:53;16.30;99.90
1546;DHT22;766;51.502;9.752;2022-09-30T11:25:32;16.40;99.90
1546;DHT22;766;51.502;9.752;2022-09-30T11:28:20;16.30;99.90
1546;DHT22;766;51.502;9.752;2022-09-30T11:31:01;16.20;99.90
1546;DHT22;766;51.502;9.752;2022-09-30T11:33:49;16.10;99.90
1546;DHT22;766;51.502;9.752;2022-09-30T11:36:26;16.10;99.90
1546;DHT22;766;51.502;9.752;2022-09-30T11:39:07;16.00;99.90
1546;DHT22;766;51.502;9.752;2022-09-30T11:41:43;16.60;99.90
1546;DHT22;766;51.502;9.752;2022-09-30T11:44:20;17.40;99.90
1546;DHT22;766;51.502;9.752;2022-09-30T11:47:11;17.90;99.90
1546;DHT22;766;51.502;9.752;2022-09-30T11:52:50;17.30;99.90
1546;DHT22;766;51.502;9.752;2022-09-30T11:58:27;16.80;99.90
1546;DHT22;766;51.502;9.752;2022-09-30T12:01:19;17.00;99.90
1546;DHT22;766;51.502;9.752;2022-09-30T12:03:55;17.00;99.90
1546;DHT22;766;51.502;9.752;2022-09-30T12:06:31;17.10;99.90
1546;DHT22;766;51.502;9.752;2022-09-30T12:09:08;17.10;99.90
1546;DHT22;766;51.502;9.752;2022-09-30T12:11:47;17.30;99.90
1546;DHT22;766;51.502;9.752;2022-09-30T12:14:22;17.30;99.90
1546;DHT22;766;51.502;9.752;2022-09-30T12:17:10;17.40;99.90
1546;DHT22;766;51.502;9.752;2022-09-30T12:19:46;17.40;99.90
1546;DHT22;766;51.502;9.752;2022-09-30T12:22:17;17.50;99.90
1546;DHT22;766;51.502;9.752;2022-09-30T12:24:47;17.60;99.90
1546;DHT22;766;51.502;9.752;2022-09-30T12:27:18;17.30;99.90
1546;DHT22;766;51.502;9.752;2022-09-30T12:29:55;17.50;99.90
1546;DHT22;766;51.502;9.752;2022-09-30T12:33:16;17.90;99.90
1546;DHT22;766;51.502;9.752;2022-09-30T12:39:27;18.50;99.90
1546;DHT22;766;51.502;9.752;2022-09-30T12:45:18;19.50;99.90
1546;DHT22;766;51.502;9.752;2022-09-30T12:47:53;19.30;99.90
1546;DHT22;766;51.502;9.752;2022-09-30T12:50:26;19.10;99.90
1546;DHT22;766;51.502;9.752;2022-09-30T12:53:10;18.00;99.90
1546;DHT22;766;51.502;9.752;2022-09-30T12:55:43;17.30;99.90
1546;DHT22;766;51.502;9.752;2022-09-30T12:58:25;17.00;99.90
1546;DHT22;766;51.502;9.752;2022-09-30T13:01:03;16.90;99.90
1546;DHT22;766;51.502;9.752;2022-09-30T13:03:48;17.20;99.90
1546;DHT22;766;51.502;9.752;2022-09-30T13:06:19;17.40;99.90
1546;DHT22;766;51.502;9.752;2022-09-30T13:09:15;17.50;99.90
1546;DHT22;766;51.502;9.752;2022-09-30T13:11:47;18.00;99.90
1546;DHT22;766;51.502;9.752;2022-09-30T13:14:40;17.90;99.90
1546;DHT22;766;51.502;9.752;2022-09-30T13:17:31;17.60;99.90
1546;DHT22;766;51.502;9.752;2022-09-30T13:20:49;18.30;99.90
1546;DHT22;766;51.502;9.752;2022-09-30T13:23:36;17.70;99.90
1546;DHT22;766;51.502;9.752;2022-09-30T13:26:31;17.80;99.90
1546;DHT22;766;51.502;9.752;2022-09-30T13:29:27;18.70;99.90
1546;DHT22;766;51.502;9.752;2022-09-30T13:32:08;19.10;99.90
1546;DHT22;766;51.502;9.752;2022-09-30T13:34:54;20.00;99.90
1546;DHT22;766;51.502;9.752;2022-09-30T13:37:37;19.90;99.90
1546;DHT22;766;51.502;9.752;2022-09-30T13:40:19;19.50;99.90
1546;DHT22;766;51.502;9.752;2022-09-30T13:43:17;19.60;99.90
1546;DHT22;766;51.502;9.752;2022-09-30T13:45:49;19.30;99.90
1546;DHT22;766;51.502;9.752;2022-09-30T13:48:22;19.50;99.90
1546;DHT22;766;51.502;9.752;2022-09-30T13:50:54;19.20;99.90
1546;DHT22;766;51.502;9.752;2022-09-30T13:53:28;18.90;99.90
1546;DHT22;766;51.502;9.752;2022-09-30T13:55:59;18.20;99.90
1546;DHT22;766;51.502;9.752;2022-09-30T13:58:48;17.60;99.90
1546;DHT22;766;51.502;9.752;2022-09-30T14:01:37;16.80;99.90
1546;DHT22;766;51.502;9.752;2022-09-30T14:04:37;16.30;99.90
1546;DHT22;766;51.502;9.752;2022-09-30T14:07:20;16.00;99.90
1546;DHT22;766;51.502;9.752;2022-09-30T14:10:24;15.50;99.90
1546;DHT22;766;51.502;9.752;2022-09-30T14:13:09;15.40;99.90
1546;DHT22;766;51.502;9.752;2022-09-30T14:16:08;15.50;99.90
1546;DHT22;766;51.502;9.752;2022-09-30T14:19:01;15.70;99.90
1546;DHT22;766;51.502;9.752;2022-09-30T14:21:36;15.70;99.90
1546;DHT22;766;51.502;9.752;2022-09-30T14:24:12;15.80;99.90
1546;DHT22;766;51.502;9.752;2022-09-30T14:27:09;16.00;99.90
1546;DHT22;766;51.502;9.752;2022-09-30T14:29:49;15.90;99.90
1546;DHT22;766;51.502;9.752;2022-09-30T14:32:26;15.70;99.90
1546;DHT22;766;51.502;9.752;2022-09-30T14:34:57;15.40;99.90
1546;DHT22;766;51.502;9.752;2022-09-30T14:37:30;15.20;99.90
1546;DHT22;766;51.502;9.752;2022-09-30T14:40:00;15.30;99.90
1546;DHT22;766;51.502;9.752;2022-09-30T14:42:32;15.30;99.90
1546;DHT22;766;51.502;9.752;2022-09-30T14:45:04;15.30;99.90
1546;DHT22;766;51.502;9.752;2022-09-30T14:47:36;15.30;99.90
1546;DHT22;766;51.502;9.752;2022-09-30T14:50:12;15.20;99.90
1546;DHT22;766;51.502;9.752;2022-09-30T14:52:43;14.90;99.90
1546;DHT22;766;51.502;9.752;2022-09-30T14:55:20;14.80;99.90
1546;DHT22;766;51.502;9.752;2022-09-30T14:57:54;14.60;99.90
1546;DHT22;766;51.502;9.752;2022-09-30T15:00:29;14.80;99.90
1546;DHT22;766;51.502;9.752;2022-09-30T15:02:58;14.60;99.90
1546;DHT22;766;51.502;9.752;2022-09-30T15:05:29;14.80;99.90
1546;DHT22;766;51.502;9.752;2022-09-30T15:08:01;14.70;99.90
1546;DHT22;766;51.502;9.752;2022-09-30T15:10:33;14.90;99.90
1546;DHT22;766;51.502;9.752;2022-09-30T15:13:02;15.00;99.90
1546;DHT22;766;51.502;9.752;2022-09-30T15:15:34;14.90;99.90
1546;DHT22;766;51.502;9.752;2022-09-30T15:18:29;14.90;99.90
1546;DHT22;766;51.502;9.752;2022-09-30T15:21:11;14.70;99.90
1546;DHT22;766;51.502;9.752;2022-09-30T15:23:41;14.70;99.90
1546;DHT22;766;51.502;9.752;2022-09-30T15:26:12;14.70;99.90
1546;DHT22;766;51.502;9.752;2022-09-30T15:28:41;14.60;99.90
1546;DHT22;766;51.502;9.752;2022-09-30T15:31:21;14.40;99.90
1546;DHT22;766;51.502;9.752;2022-09-30T15:34:02;14.30;99.90
1546;DHT22;766;51.502;9.752;2022-09-30T15:36:35;14.40;99.90
1546;DHT22;766;51.502;9.752;2022-09-30T15:39:05;14.30;99.90
1546;DHT22;766;51.502;9.752;2022-09-30T15:41:45;14.10;99.90
1546;DHT22;766;51.502;9.752;2022-09-30T15:44:16;14.20;99.90
1546;DHT22;766;51.502;9.752;2022-09-30T15:47:02;14.10;99.90
1546;DHT22;766;51.502;9.752;2022-09-30T15:49:42;14.10;99.90
1546;DHT22;766;51.502;9.752;2022-09-30T15:52:26;13.90;99.90
1546;DHT22;766;51.502;9.752;2022-09-30T15:54:56;13.90;99.90
1546;DHT22;766;51.502;9.752;2022-09-30T15:57:42;13.70;99.90
1546;DHT22;766;51.502;9.752;2022-09-30T16:00:35;13.60;99.90
1546;DHT22;766;51.502;9.752;2022-09-30T16:03:13;13.60;99.90
1546;DHT22;766;51.502;9.752;2022-09-30T16:05:45;13.50;99.90
1546;DHT22;766;51.502;9.752;2022-09-30T16:08:23;13.60;99.90
1546;DHT22;766;51.502;9.752;2022-09-30T16:10:55;13.40;99.90
1546;DHT22;766;51.502;9.752;2022-09-30T16:13:26;13.40;99.90
1546;DHT22;766;51.502;9.752;2022-09-30T16:15:57;13.40;99.90
1546;DHT22;766;51.502;9.752;2022-09-30T16:18:28;13.30;99.90
1546;DHT22;766;51.502;9.752;2022-09-30T16:21:02;13.40;99.90
1546;DHT22;766;51.502;9.752;2022-09-30T16:23:35;13.20;99.90
1546;DHT22;766;51.502;9.752;2022-09-30T16:26:18;13.20;99.90
1546;DHT22;766;51.502;9.752;2022-09-30T16:28:51;13.10;99.90
1546;DHT22;766;51.502;9.752;2022-09-30T16:31:19;13.00;99.90
1546;DHT22;766;51.502;9.752;2022-09-30T16:33:48;12.90;99.90
1546;DHT22;766;51.502;9.752;2022-09-30T16:36:17;12.80;99.90
1546;DHT22;766;51.502;9.752;2022-09-30T16:38:47;12.80;99.90
1546;DHT22;766;51.502;9.752;2022-09-30T16:41:16;12.80;99.90
1546;DHT22;766;51.502;9.752;2022-09-30T16:43:44;12.80;99.90
1546;DHT22;766;51.502;9.752;2022-09-30T16:46:12;12.60;99.90
1546;DHT22;766;51.502;9.752;2022-09-30T16:48:41;12.50;99.90
1546;DHT22;766;51.502;9.752;2022-09-30T16:51:12;12.30;99.90
1546;DHT22;766;51.502;9.752;2022-09-30T16:53:42;12.30;99.90
1546;DHT22;766;51.502;9.752;2022-09-30T16:56:16;12.10;99.90
1546;DHT22;766;51.502;9.752;2022-09-30T16:58:45;12.10;99.90
1546;DHT22;766;51.502;9.752;2022-09-30T17:01:18;12.20;99.90
1546;DHT22;766;51.502;9.752;2022-09-30T17:03:47;11.90;99.90
1546;DHT22;766;51.502;9.752;2022-09-30T17:06:17;11.90;99.90
1546;DHT22;766;51.502;9.752;2022-09-30T17:08:48;11.70;99.90
1546;DHT22;766;51.502;9.752;2022-09-30T17:11:18;11.70;99.90
1546;DHT22;766;51.502;9.752;2022-09-30T17:13:46;11.70;99.90
1546;DHT22;766;51.502;9.752;2022-09-30T17:16:14;11.60;99.90
1546;DHT22;766;51.502;9.752;2022-09-30T17:18:44;11.60;99.90
1546;DHT22;766;51.502;9.752;2022-09-30T17:21:15;11.50;99.90
1546;DHT22;766;51.502;9.752;2022-09-30T17:23:44;11.40;99.90
1546;DHT22;766;51.502;9.752;2022-09-30T17:26:17;11.40;99.90
1546;DHT22;766;51.502;9.752;2022-09-30T17:28:45;11.40;99.90
1546;DHT22;766;51.502;9.752;2022-09-30T17:31:14;11.40;99.90
1546;DHT22;766;51.502;9.752;2022-09-30T17:33:42;11.20;99.90
1546;DHT22;766;51.502;9.752;2022-09-30T17:36:12;11.10;99.90
1546;DHT22;766;51.502;9.752;2022-09-30T17:38:41;10.90;99.90
1546;DHT22;766;51.502;9.752;2022-09-30T17:41:13;10.90;99.90